Time;durP1;ratioP1;P1;durP2;ratioP2;P2;SDS_P1;SDS_P2;PMS_P1;PMS_P2;Temp;Humidity;BMP_temperature;BMP_pressure;BME280_temperature;BME280_humidity;BME280_pressure;Samples;Min_cycle;Max_cycle;Signal;HPM_P1;HPM_P2
2023/03/29 00:01:29;;;;;;;6.60;3.50;;;;;;;-4.33;65.88;100960.70;103662;279;38711;-71
2023/03/29 00:04:03;;;;;;;6.70;3.20;;;;;;;-4.33;66.12;100961.71;103687;279;38440;-70
2023/03/29 00:06:37;;;;;;;5.50;3.10;;;;;;;-4.31;66.06;100964.52;103718;279;38396;-71
2023/03/29 00:09:11;;;;;;;6.20;3.50;;;;;;;-4.26;66.15;100967.56;103695;279;38241;-70
2023/03/29 00:11:45;;;;;;;5.90;3.30;;;;;;;-4.25;66.18;100966.40;103695;279;38447;-71
2023/03/29 00:14:19;;;;;;;6.20;4.10;;;;;;;-4.23;66.31;100969.54;103664;279;39761;-71
2023/03/29 00:16:53;;;;;;;8.40;3.90;;;;;;;-4.24;66.31;100971.39;103696;279;39969;-70
2023/03/29 00:19:27;;;;;;;6.10;3.70;;;;;;;-4.25;66.30;100971.69;103621;279;38645;-70
2023/03/29 00:22:01;;;;;;;8.00;3.30;;;;;;;-4.30;66.28;100968.98;103574;279;176198;-71
2023/03/29 00:24:35;;;;;;;7.50;4.00;;;;;;;-4.34;66.38;100970.06;103665;279;38344;-71
2023/03/29 00:27:09;;;;;;;6.60;3.80;;;;;;;-4.38;66.38;100971.95;103635;279;40474;-71
2023/03/29 00:29:43;;;;;;;7.20;3.90;;;;;;;-4.45;66.43;100968.84;103685;279;38251;-70
2023/03/29 00:32:17;;;;;;;6.30;3.70;;;;;;;-4.49;66.56;100968.35;103647;279;38307;-68
2023/03/29 00:34:51;;;;;;;6.50;3.80;;;;;;;-4.55;66.55;100973.46;103650;279;39396;-70
2023/03/29 00:37:25;;;;;;;6.60;3.30;;;;;;;-4.58;66.55;100973.52;103660;279;38466;-71
2023/03/29 00:39:59;;;;;;;7.50;4.30;;;;;;;-4.58;66.78;100971.82;103673;279;38452;-69
2023/03/29 00:42:33;;;;;;;5.40;3.20;;;;;;;-4.55;66.88;100969.87;103708;279;38378;-72
2023/03/29 00:45:15;;;;;;;8.00;3.70;;;;;;;-4.52;66.95;100969.63;102977;279;924535;-72
2023/03/29 00:47:51;;;;;;;8.20;3.80;;;;;;;-4.50;66.98;100970.70;103639;279;39665;-69
2023/03/29 00:50:29;;;;;;;7.50;4.00;;;;;;;-4.50;67.16;100966.98;103643;279;38383;-69
2023/03/29 00:53:07;;;;;;;8.20;3.90;;;;;;;-4.49;67.18;100969.40;103705;279;38765;-69
2023/03/29 00:55:46;;;;;;;5.70;3.60;;;;;;;-4.49;67.24;100969.40;103640;280;38395;-70
2023/03/29 00:58:23;;;;;;;8.60;4.20;;;;;;;-4.49;67.25;100964.80;103551;279;176223;-69
2023/03/29 01:01:00;;;;;;;7.80;3.90;;;;;;;-4.53;67.17;100964.14;103715;279;38353;-70
2023/03/29 01:03:40;;;;;;;6.80;4.30;;;;;;;-4.58;67.21;100964.67;103629;279;38906;-72
2023/03/29 01:06:15;;;;;;;7.40;4.50;;;;;;;-4.64;67.09;100966.34;103681;279;38958;-71
2023/03/29 01:08:51;;;;;;;7.50;4.80;;;;;;;-4.72;66.93;100968.47;103646;279;38503;-69
2023/03/29 01:11:27;;;;;;;6.20;4.00;;;;;;;-4.80;67.22;100965.98;103622;279;38474;-71
2023/03/29 01:14:03;;;;;;;7.00;3.60;;;;;;;-4.86;67.18;100970.55;103657;279;38797;-70
2023/03/29 01:16:38;;;;;;;7.20;3.70;;;;;;;-4.86;67.61;100965.43;103661;279;39928;-70
2023/03/29 01:19:13;;;;;;;5.60;3.60;;;;;;;-4.83;67.63;100966.91;103665;279;38710;-71
2023/03/29 01:21:50;;;;;;;6.80;3.90;;;;;;;-4.80;67.64;100968.03;103656;279;38334;-72
2023/03/29 01:24:40;;;;;;;8.10;4.30;;;;;;;-4.76;67.92;100966.11;103724;278;38718;-71
2023/03/29 01:27:17;;;;;;;7.50;3.90;;;;;;;-4.74;67.95;100967.04;103728;279;38635;-71
2023/03/29 01:29:56;;;;;;;6.70;4.00;;;;;;;-4.73;67.97;100966.73;103691;279;38269;-72
2023/03/29 01:32:34;;;;;;;;;;;;;;;-4.74;68.00;100969.60;103710;279;38346;-70
2023/03/29 01:35:11;;;;;;;7.50;4.40;;;;;;;-4.79;68.12;100967.54;103130;281;577452;-70
2023/03/29 01:37:51;;;;;;;9.30;4.60;;;;;;;-4.79;68.06;100968.23;103663;279;38282;-67
2023/03/29 01:40:32;;;;;;;7.70;4.20;;;;;;;-4.82;68.08;100972.04;103663;279;38356;-68
2023/03/29 01:43:22;;;;;;;8.90;4.60;;;;;;;-4.85;68.00;100973.98;103686;279;38304;-67
2023/03/29 01:46:02;;;;;;;12.20;4.90;;;;;;;-4.88;68.17;100973.36;103694;279;38339;-68
2023/03/29 01:48:39;;;;;;;7.60;4.00;;;;;;;-4.88;68.18;100974.39;103687;279;38519;-71
2023/03/29 01:51:15;;;;;;;8.40;4.20;;;;;;;-4.88;68.09;100975.06;103641;279;38482;-70
2023/03/29 01:53:51;;;;;;;6.30;4.20;;;;;;;-4.87;68.17;100975.30;103645;279;38601;-71
2023/03/29 01:56:27;;;;;;;9.60;4.90;;;;;;;-4.84;68.37;100976.39;103624;279;39481;-71
2023/03/29 01:59:03;;;;;;;7.10;4.40;;;;;;;-4.84;68.22;100971.98;103652;279;38248;-70
2023/03/29 02:01:41;;;;;;;10.30;4.80;;;;;;;-4.84;68.43;100973.34;103648;279;38266;-69
2023/03/29 02:04:20;;;;;;;7.30;4.50;;;;;;;-4.85;68.37;100971.94;103678;279;38280;-68
2023/03/29 02:06:59;;;;;;;9.40;5.20;;;;;;;-4.88;68.42;100974.90;103657;279;38264;-69
2023/03/29 02:09:35;;;;;;;8.70;5.10;;;;;;;-4.92;68.27;100972.56;103669;279;38510;-69
2023/03/29 02:12:10;;;;;;;10.20;5.00;;;;;;;-4.97;68.34;100978.19;103693;279;38266;-72
2023/03/29 02:14:44;;;;;;;8.40;4.90;;;;;;;-5.01;68.43;100975.47;103698;279;39093;-72
2023/03/29 02:17:23;;;;;;;10.60;5.40;;;;;;;-5.07;68.46;100979.71;103657;279;38653;-68
2023/03/29 02:19:59;;;;;;;8.50;4.60;;;;;;;-5.12;68.50;100980.19;103671;279;40213;-68
2023/03/29 02:22:36;;;;;;;8.60;4.50;;;;;;;-5.15;68.72;100984.00;103662;279;38684;-72
2023/03/29 02:25:12;;;;;;;10.80;4.60;;;;;;;-5.14;68.81;100987.09;103677;279;38366;-71
2023/03/29 02:27:46;;;;;;;7.90;5.60;;;;;;;-5.12;68.98;100988.36;103690;279;38928;-72
2023/03/29 02:30:21;;;;;;;9.60;4.90;;;;;;;-5.10;69.18;100987.92;103647;279;38296;-71
2023/03/29 02:32:59;;;;;;;12.20;5.30;;;;;;;-5.10;69.13;100987.42;103690;279;38413;-70
2023/03/29 02:35:35;;;;;;;8.70;5.00;;;;;;;-5.13;69.17;100988.67;103642;279;38485;-70
2023/03/29 02:38:10;;;;;;;9.40;5.20;;;;;;;-5.14;69.26;100988.79;103672;279;38613;-70
2023/03/29 02:40:45;;;;;;;10.20;5.50;;;;;;;-5.17;69.34;100987.69;103645;279;38408;-70
2023/03/29 02:43:20;;;;;;;10.10;5.00;;;;;;;-5.23;69.28;100986.63;103682;279;39724;-70
2023/03/29 02:45:54;;;;;;;10.10;5.30;;;;;;;-5.27;69.48;100988.86;103667;279;38244;-69
2023/03/29 02:48:28;;;;;;;8.10;4.70;;;;;;;-5.29;69.71;100990.67;103677;279;38330;-69
2023/03/29 02:51:05;;;;;;;7.30;5.00;;;;;;;-5.28;69.75;100989.67;103621;279;38738;-70
2023/03/29 02:53:42;;;;;;;8.50;5.00;;;;;;;-5.28;69.85;100989.67;103696;278;38331;-71
2023/03/29 02:56:18;;;;;;;12.40;6.70;;;;;;;-5.25;70.13;100992.33;103661;279;39591;-69
2023/03/29 02:58:54;;;;;;;10.20;5.70;;;;;;;-5.21;70.30;100991.98;103696;279;38511;-69
2023/03/29 03:01:29;;;;;;;9.00;5.40;;;;;;;-5.20;70.13;100995.23;103700;279;38295;-70
2023/03/29 03:04:03;;;;;;;10.30;5.50;;;;;;;-5.20;70.18;100990.11;103681;279;38325;-70
2023/03/29 03:06:37;;;;;;;11.40;5.50;;;;;;;-5.24;70.25;100991.20;103669;279;38260;-68
2023/03/29 03:09:11;;;;;;;11.20;6.50;;;;;;;-5.28;70.26;100990.36;103679;279;38573;-68
2023/03/29 03:11:45;;;;;;;9.90;5.70;;;;;;;-5.33;70.35;100992.88;103667;279;38849;-69
2023/03/29 03:14:21;;;;;;;11.10;5.80;;;;;;;-5.39;70.46;100996.42;103669;279;38972;-69
2023/03/29 03:16:56;;;;;;;9.20;5.30;;;;;;;-5.42;70.71;100996.66;103655;268;38364;-68
2023/03/29 03:19:31;;;;;;;9.80;4.80;;;;;;;-5.41;70.70;101000.41;103670;271;38302;-70
2023/03/29 03:22:06;;;;;;;11.50;5.30;;;;;;;-5.39;70.85;101003.55;103665;279;40016;-71
2023/03/29 03:24:40;;;;;;;9.70;5.60;;;;;;;-5.37;71.12;101006.84;103635;279;38477;-69
2023/03/29 03:27:15;;;;;;;9.60;5.40;;;;;;;-5.36;71.26;101006.88;103654;279;39086;-71
2023/03/29 03:29:52;;;;;;;11.90;5.90;;;;;;;-5.38;71.35;101003.26;103654;279;38288;-72
2023/03/29 03:32:26;;;;;;;9.20;5.80;;;;;;;-5.43;71.21;101001.36;103673;279;38271;-69
2023/03/29 03:35:01;;;;;;;10.60;6.30;;;;;;;-5.48;71.31;100999.84;103677;279;38256;-72
2023/03/29 03:37:35;;;;;;;9.10;5.60;;;;;;;-5.53;71.37;100999.48;103545;279;39432;-71
2023/03/29 03:40:12;;;;;;;9.10;5.20;;;;;;;-5.55;71.55;101000.74;103653;279;38233;-71
2023/03/29 03:42:46;;;;;;;11.00;6.30;;;;;;;-5.57;71.77;101001.20;103691;279;38234;-72
2023/03/29 03:45:20;;;;;;;9.60;5.30;;;;;;;-5.55;71.95;101003.81;103499;280;40455;-71
2023/03/29 03:47:55;;;;;;;10.20;5.20;;;;;;;-5.51;72.27;101001.59;103674;279;38291;-69
2023/03/29 03:50:40;;;;;;;9.30;5.40;;;;;;;-5.48;72.34;101001.20;103641;279;38249;-68
2023/03/29 03:53:17;;;;;;;8.50;5.60;;;;;;;-5.43;72.51;101001.35;103654;279;38389;-69
2023/03/29 03:55:54;;;;;;;9.50;5.80;;;;;;;-5.42;72.53;101003.45;103676;279;38645;-69
2023/03/29 03:58:28;;;;;;;13.20;5.90;;;;;;;-5.41;72.63;101006.00;103697;279;38923;-70
2023/03/29 04:01:02;;;;;;;8.00;5.50;;;;;;;-5.43;72.58;101007.67;103690;279;38279;-71
2023/03/29 04:03:37;;;;;;;11.50;6.10;;;;;;;-5.46;72.71;101007.02;103661;279;39498;-71
2023/03/29 04:06:17;;;;;;;10.30;6.30;;;;;;;-5.44;72.88;101009.65;103682;279;38491;-69
2023/03/29 04:08:55;;;;;;;10.50;5.50;;;;;;;-5.42;72.91;101012.59;103659;279;38330;-68
2023/03/29 04:11:29;;;;;;;9.20;4.70;;;;;;;-5.38;73.10;101013.27;103649;279;39351;-70
2023/03/29 04:14:03;;;;;;;11.10;5.60;;;;;;;-5.32;73.39;101014.36;103661;279;38416;-70
2023/03/29 04:16:37;;;;;;;10.30;5.90;;;;;;;-5.26;73.36;101016.11;103711;279;39726;-70
2023/03/29 04:19:12;;;;;;;12.20;5.80;;;;;;;-5.23;73.34;101019.95;103662;279;38634;-69
2023/03/29 04:21:48;;;;;;;9.50;5.70;;;;;;;-5.22;73.34;101021.04;103694;279;38754;-69
2023/03/29 04:24:24;;;;;;;11.10;6.10;;;;;;;-5.22;73.45;101023.75;103671;279;38407;-68
2023/03/29 04:26:58;;;;;;;10.60;5.90;;;;;;;-5.22;73.47;101022.88;103639;279;38429;-68
2023/03/29 04:29:32;;;;;;;10.00;5.40;;;;;;;-5.25;73.43;101025.65;103664;279;38411;-70
2023/03/29 04:32:07;;;;;;;8.30;5.70;;;;;;;-5.28;73.49;101027.61;103691;279;38489;-70
2023/03/29 04:34:49;;;;;;;11.50;5.60;;;;;;;-5.26;73.69;101024.78;103632;279;38448;-68
2023/03/29 04:37:28;;;;;;;12.50;5.80;;;;;;;-5.19;73.94;101028.60;103647;279;39430;-70
2023/03/29 04:40:03;;;;;;;12.30;6.40;;;;;;;-5.12;74.12;101027.15;103641;279;38817;-71
2023/03/29 04:42:37;;;;;;;12.20;5.80;;;;;;;-5.08;74.06;101023.23;103656;279;38441;-70
2023/03/29 04:45:13;;;;;;;12.10;6.80;;;;;;;-5.06;74.12;101022.77;103634;279;38431;-71
2023/03/29 04:47:46;;;;;;;15.30;7.50;;;;;;;-5.05;74.16;101026.37;103546;279;38313;-71
2023/03/29 04:50:20;;;;;;;12.60;7.60;;;;;;;-5.03;74.28;101026.44;103642;279;38456;-71
2023/03/29 04:52:54;;;;;;;13.00;8.30;;;;;;;-5.03;74.41;101034.95;103649;279;38273;-70
2023/03/29 04:55:28;;;;;;;12.10;6.70;;;;;;;-4.99;74.34;101029.64;103649;279;38341;-70
2023/03/29 04:58:03;;;;;;;11.00;6.50;;;;;;;-4.92;74.66;101025.83;103649;279;38581;-69
2023/03/29 05:00:41;;;;;;;10.80;6.60;;;;;;;-4.84;74.89;101025.94;103668;279;38302;-70
2023/03/29 05:03:19;;;;;;;11.10;6.30;;;;;;;-4.73;75.03;101029.37;103577;279;38522;-69
2023/03/29 05:05:55;;;;;;;9.70;6.10;;;;;;;-4.59;75.05;101029.49;103692;279;39440;-68
2023/03/29 05:08:38;;;;;;;11.10;6.10;;;;;;;-4.36;75.49;101030.25;103511;279;38410;-69
2023/03/29 05:11:12;;;;;;;12.10;6.80;;;;;;;-3.87;76.11;101032.17;103559;279;38549;-69
2023/03/29 05:13:46;;;;;;;12.40;6.70;;;;;;;-3.49;75.56;101034.51;103557;279;39449;-69
2023/03/29 05:16:23;;;;;;;11.90;6.60;;;;;;;-3.08;75.43;101026.97;103556;279;38589;-70
2023/03/29 05:19:06;;;;;;;14.50;6.90;;;;;;;-2.08;78.11;101020.33;103665;279;38532;-70
2023/03/29 05:21:54;;;;;;;11.30;6.50;;;;;;;-0.66;79.90;101018.81;103650;279;38480;-71
2023/03/29 05:24:28;;;;;;;11.30;6.10;;;;;;;0.78;80.77;101013.97;103683;279;38802;-73
2023/03/29 05:27:02;;;;;;;8.10;6.20;;;;;;;2.20;76.39;101012.20;103711;268;38752;-71
2023/03/29 05:29:37;;;;;;;8.40;5.50;;;;;;;3.19;70.36;101010.58;103654;279;38205;-69
2023/03/29 05:32:13;;;;;;;11.40;5.50;;;;;;;3.13;65.30;101012.65;103703;279;39425;-73
2023/03/29 05:34:48;;;;;;;9.50;5.70;;;;;;;2.75;62.92;101009.59;103693;279;39425;-71
2023/03/29 05:37:22;;;;;;;11.80;5.60;;;;;;;2.30;62.16;101013.83;103693;279;38552;-70
2023/03/29 05:39:58;;;;;;;9.10;5.90;;;;;;;1.92;62.03;101015.82;103692;279;38492;-72
2023/03/29 05:42:34;;;;;;;12.80;6.70;;;;;;;1.58;61.77;101017.77;103663;279;38411;-71
2023/03/29 05:45:12;;;;;;;10.60;6.60;;;;;;;1.21;62.13;101019.45;103681;279;38282;-70
2023/03/29 05:47:46;;;;;;;12.40;6.10;;;;;;;0.92;62.52;101024.98;103740;279;39232;-70
2023/03/29 05:50:20;;;;;;;10.70;6.50;;;;;;;0.73;62.86;101026.65;103672;279;38395;-70
2023/03/29 05:52:55;;;;;;;13.10;6.70;;;;;;;0.56;62.92;101021.77;103678;279;38534;-71
2023/03/29 05:55:30;;;;;;;10.70;6.90;;;;;;;0.41;63.46;101020.38;103652;279;38272;-69
2023/03/29 05:58:04;;;;;;;12.00;7.60;;;;;;;0.47;64.37;101021.66;103696;279;38753;-69
2023/03/29 06:00:37;;;;;;;13.60;8.30;;;;;;;1.17;65.60;101018.71;103677;279;39635;-70
2023/03/29 06:03:18;;;;;;;10.90;7.60;;;;;;;2.53;67.89;101014.27;103718;279;38925;-71
2023/03/29 06:05:58;;;;;;;11.30;7.00;;;;;;;4.30;66.15;101008.52;103713;279;38295;-72
2023/03/29 06:08:33;;;;;;;12.20;6.90;;;;;;;5.86;63.78;101004.93;103680;279;38556;-71
2023/03/29 06:11:09;;;;;;;11.10;5.90;;;;;;;7.30;59.89;101006.95;103687;279;38238;-72
2023/03/29 06:13:43;;;;;;;10.70;5.70;;;;;;;8.62;55.66;101000.73;103659;279;38400;-73
2023/03/29 06:16:17;;;;;;;10.70;5.90;;;;;;;9.52;50.40;101003.31;103679;279;38230;-69
2023/03/29 06:18:52;;;;;;;9.60;5.70;;;;;;;10.17;49.04;100999.60;103694;279;39351;-70
2023/03/29 06:21:27;;;;;;;8.70;5.00;;;;;;;10.87;46.06;101004.16;103707;279;38330;-70
2023/03/29 06:24:04;;;;;;;10.30;5.50;;;;;;;11.41;44.55;100999.73;103529;279;38998;-72
2023/03/29 06:26:39;;;;;;;8.40;5.10;;;;;;;11.98;43.19;101001.59;103574;279;38734;-71
2023/03/29 06:29:13;;;;;;;9.40;4.80;;;;;;;12.45;41.58;100999.06;103654;279;39451;-71
2023/03/29 06:31:48;;;;;;;6.60;4.30;;;;;;;12.69;40.20;100997.33;103668;279;39408;-71
2023/03/29 06:34:27;;;;;;;6.30;4.30;;;;;;;12.85;39.01;100999.52;103708;279;38493;-72
2023/03/29 06:37:02;;;;;;;6.00;4.40;;;;;;;13.02;38.39;101003.11;103699;279;38236;-72
2023/03/29 06:39:39;;;;;;;8.40;4.50;;;;;;;13.24;38.16;101000.52;103592;279;175865;-70
2023/03/29 06:42:14;;;;;;;9.70;5.00;;;;;;;12.82;36.90;101005.77;103703;279;38268;-69
2023/03/29 06:44:49;;;;;;;6.60;4.20;;;;;;;12.23;37.33;101009.11;103650;279;39568;-72
2023/03/29 06:47:27;;;;;;;6.30;4.10;;;;;;;11.67;38.23;101012.73;103671;279;38516;-70
2023/03/29 06:50:00;;;;;;;;;;;;;;;11.42;38.83;101018.75;103655;279;38765;-70
2023/03/29 06:52:34;;;;;;;5.70;4.00;;;;;;;11.64;38.13;101016.12;103612;279;38285;-73
2023/03/29 06:55:11;;;;;;;6.30;4.30;;;;;;;12.03;38.09;101020.83;103636;279;38348;-71
2023/03/29 06:57:46;;;;;;;7.30;4.40;;;;;;;12.57;37.62;101020.52;103686;279;38440;-68
2023/03/29 07:00:28;;;;;;;5.90;3.80;;;;;;;13.14;37.04;101021.23;103676;279;38272;-69
2023/03/29 07:03:06;;;;;;;4.80;4.10;;;;;;;13.49;35.89;101015.33;103706;279;38282;-70
2023/03/29 07:05:43;;;;;;;5.60;3.90;;;;;;;13.57;35.74;101015.02;103645;279;38844;-71
2023/03/29 07:08:19;;;;;;;6.30;3.50;;;;;;;13.59;35.53;101014.54;103685;279;39380;-71
2023/03/29 07:10:54;;;;;;;10.40;4.10;;;;;;;13.76;34.18;101018.10;103711;279;38852;-71
2023/03/29 07:13:29;;;;;;;6.80;4.30;;;;;;;13.89;34.05;101018.79;103694;279;38361;-70
2023/03/29 07:16:03;;;;;;;5.20;3.80;;;;;;;14.18;34.23;101016.84;103661;279;38513;-72
2023/03/29 07:18:37;;;;;;;4.80;3.60;;;;;;;14.51;33.46;101020.16;103539;279;38944;-73
2023/03/29 07:21:12;;;;;;;5.80;3.90;;;;;;;14.85;33.07;101015.17;103502;279;38279;-72
2023/03/29 07:23:47;;;;;;;6.00;3.10;;;;;;;15.12;33.17;101019.20;103699;279;38634;-73
2023/03/29 07:26:21;;;;;;;4.20;3.40;;;;;;;15.18;32.34;101014.73;103734;279;38256;-73
2023/03/29 07:28:57;;;;;;;5.20;3.40;;;;;;;15.21;32.20;101014.20;103669;279;38253;-72
2023/03/29 07:31:34;;;;;;;3.80;2.80;;;;;;;15.26;32.03;101013.81;103710;279;39634;-72
2023/03/29 07:34:09;;;;;;;5.60;3.50;;;;;;;15.54;32.74;101007.55;103668;279;39892;-72
2023/03/29 07:36:44;;;;;;;6.70;3.70;;;;;;;16.08;31.30;101008.21;103700;279;38240;-72
2023/03/29 07:39:18;;;;;;;5.50;3.50;;;;;;;16.17;30.61;101002.66;103709;279;38974;-72
2023/03/29 07:41:52;;;;;;;4.40;3.10;;;;;;;16.36;30.43;101005.56;103678;279;40471;-73
2023/03/29 07:44:28;;;;;;;5.80;3.50;;;;;;;16.93;31.02;101002.20;103672;279;38377;-73
2023/03/29 07:47:03;;;;;;;4.10;2.60;;;;;;;17.38;29.67;101001.98;103715;279;38397;-76
2023/03/29 07:49:37;;;;;;;3.50;2.60;;;;;;;17.53;29.43;101002.04;103651;279;38730;-75
2023/03/29 07:52:10;;;;;;;4.80;2.50;;;;;;;17.80;29.17;101001.71;103667;279;39916;-73
2023/03/29 07:54:45;;;;;;;3.90;2.60;;;;;;;18.22;28.41;101002.23;103673;279;39638;-73
2023/03/29 07:57:19;;;;;;;4.10;2.40;;;;;;;18.76;28.21;101002.20;103633;279;38229;-75
2023/03/29 07:59:53;;;;;;;3.80;2.60;;;;;;;19.00;26.50;100999.58;103691;279;38241;-73
2023/03/29 08:02:27;;;;;;;5.60;2.50;;;;;;;19.09;26.16;101002.02;103684;279;39675;-78
2023/03/29 08:05:01;;;;;;;3.30;2.60;;;;;;;19.28;26.19;100995.73;103649;279;38299;-75
2023/03/29 08:07:35;;;;;;;4.00;2.50;;;;;;;19.61;26.08;100992.33;103652;279;38713;-73
2023/03/29 08:10:12;;;;;;;3.90;2.40;;;;;;;19.84;25.65;100991.67;103656;279;38265;-74
2023/03/29 08:12:46;;;;;;;3.20;2.20;;;;;;;20.22;25.17;100988.07;103701;279;38884;-73
2023/03/29 08:15:20;;;;;;;4.60;2.30;;;;;;;20.64;24.91;100984.63;103676;279;39134;-73
2023/03/29 08:17:54;;;;;;;4.80;2.20;;;;;;;21.00;24.38;100983.30;103678;279;39732;-74
2023/03/29 08:20:28;;;;;;;3.70;2.00;;;;;;;21.18;23.84;100977.42;103637;279;39439;-73
2023/03/29 08:23:02;;;;;;;2.40;1.80;;;;;;;21.42;23.94;100976.39;103628;279;38522;-74
2023/03/29 08:25:36;;;;;;;3.80;1.90;;;;;;;21.88;23.01;100975.04;103647;279;38984;-76
2023/03/29 08:28:10;;;;;;;3.00;2.10;;;;;;;21.77;22.45;100969.17;103677;279;38522;-75
2023/03/29 08:30:48;;;;;;;5.70;1.90;;;;;;;21.14;22.23;100962.95;103511;279;38277;-76
2023/03/29 08:33:23;;;;;;;4.30;2.20;;;;;;;20.96;22.34;100966.23;103680;279;39886;-73
2023/03/29 08:35:57;;;;;;;2.10;1.50;;;;;;;20.48;21.04;100967.52;103666;279;38528;-74
2023/03/29 08:38:31;;;;;;;3.60;2.00;;;;;;;20.26;22.05;100968.27;103473;279;174415;-75
2023/03/29 08:41:08;;;;;;;3.50;1.70;;;;;;;20.47;21.95;100963.88;103680;279;38106;-74
2023/03/29 08:44:09;;;;;;;2.40;1.50;;;;;;;20.68;21.28;100965.21;103662;279;39987;-73
2023/03/29 08:46:47;;;;;;;2.00;1.20;;;;;;;20.72;21.34;100962.62;103650;279;38275;-73
2023/03/29 08:49:21;;;;;;;1.70;1.30;;;;;;;21.02;20.91;100956.39;103673;279;39473;-74
2023/03/29 08:51:57;;;;;;;2.10;1.30;;;;;;;21.22;20.20;100955.46;103649;279;39554;-74
2023/03/29 08:54:34;;;;;;;4.00;1.60;;;;;;;21.36;20.45;100956.92;103645;279;38277;-76
2023/03/29 08:57:15;;;;;;;2.00;1.40;;;;;;;21.58;20.68;100957.23;103674;279;39405;-75
2023/03/29 08:59:51;;;;;;;2.70;1.50;;;;;;;22.07;20.63;100959.23;103664;279;39917;-76
2023/03/29 09:02:28;;;;;;;2.20;1.50;;;;;;;22.21;19.55;100961.40;103669;279;39460;-75
2023/03/29 09:05:06;;;;;;;5.30;1.60;;;;;;;22.16;19.67;100960.30;103677;279;38310;-74
2023/03/29 09:07:40;;;;;;;2.80;1.80;;;;;;;22.14;20.26;100953.58;103591;279;174317;-77
2023/03/29 09:10:18;;;;;;;3.20;2.00;;;;;;;22.36;19.85;100957.89;103685;279;38648;-74
2023/03/29 09:13:16;;;;;;;1.80;1.50;;;;;;;22.64;18.79;100951.25;103701;279;38809;-75
2023/03/29 09:15:54;;;;;;;3.50;1.20;;;;;;;22.70;17.47;100955.79;103654;279;39626;-75
2023/03/29 09:18:32;;;;;;;2.60;1.30;;;;;;;22.54;16.85;100948.85;103721;279;38421;-74
2023/03/29 09:21:10;;;;;;;3.90;1.10;;;;;;;22.45;17.44;100946.55;103690;279;38518;-79
2023/03/29 09:24:23;;;;;;;2.40;1.00;;;;;;;22.65;17.71;100948.52;103638;279;38721;-73
2023/03/29 09:26:59;;;;;;;1.90;0.90;;;;;;;23.00;16.92;100943.42;103607;279;38385;-76
2023/03/29 09:29:50;;;;;;;1.30;1.00;;;;;;;23.10;16.68;100938.08;103671;279;40414;-76
2023/03/29 09:32:27;;;;;;;1.70;1.10;;;;;;;23.02;15.88;100937.55;103657;279;38890;-72
2023/03/29 09:35:13;;;;;;;3.30;1.50;;;;;;;22.94;16.36;100933.39;103362;279;423887;-75
2023/03/29 09:37:47;;;;;;;5.40;2.30;;;;;;;23.11;16.97;100929.63;103697;279;38545;-76
2023/03/29 09:40:24;;;;;;;3.00;1.50;;;;;;;23.17;16.47;100926.90;103686;279;39440;-77
2023/03/29 09:42:58;;;;;;;3.20;1.30;;;;;;;23.20;15.86;100927.01;103717;279;38560;-75
2023/03/29 09:45:33;;;;;;;2.90;1.60;;;;;;;23.16;16.18;100927.85;103641;279;38809;-75
2023/03/29 09:48:09;;;;;;;1.90;1.30;;;;;;;23.12;15.72;100923.34;103715;279;38244;-75
2023/03/29 09:50:46;;;;;;;1.60;1.30;;;;;;;22.77;15.48;100921.23;103666;279;38241;-77
2023/03/29 09:53:21;;;;;;;3.80;1.90;;;;;;;22.26;16.20;100921.17;103571;279;174602;-74
2023/03/29 09:55:55;;;;;;;4.20;2.70;;;;;;;21.48;16.54;100918.00;103678;279;38340;-74
2023/03/29 09:58:31;;;;;;;3.70;2.40;;;;;;;20.87;17.34;100915.09;103520;279;39793;-75
2023/03/29 10:01:09;;;;;;;3.70;2.50;;;;;;;20.20;17.32;100914.29;103642;279;38565;-75
2023/03/29 10:03:42;;;;;;;5.90;2.50;;;;;;;19.38;17.53;100922.31;103655;279;39659;-74
2023/03/29 10:06:17;;;;;;;4.10;2.40;;;;;;;18.55;17.93;100917.58;103661;279;38586;-73
2023/03/29 10:08:55;;;;;;;3.60;3.00;;;;;;;17.86;18.15;100920.34;103671;279;38585;-73
2023/03/29 10:11:34;;;;;;;5.20;2.90;;;;;;;17.12;18.43;100915.11;103487;279;40616;-74
2023/03/29 10:14:12;;;;;;;4.70;2.80;;;;;;;16.37;18.66;100918.34;103530;279;175101;-74
2023/03/29 10:16:47;;;;;;;4.60;2.30;;;;;;;15.59;19.43;100919.19;103694;279;38441;-74
2023/03/29 10:19:24;;;;;;;3.90;2.20;;;;;;;15.18;20.47;100921.89;103672;279;39479;-74
2023/03/29 10:22:01;;;;;;;5.30;3.60;;;;;;;14.92;20.81;100920.88;103711;279;40099;-76
2023/03/29 10:24:34;;;;;;;4.60;3.00;;;;;;;14.60;20.80;100925.69;103698;279;38398;-75
2023/03/29 10:27:11;;;;;;;5.60;3.30;;;;;;;14.16;21.37;100923.96;103686;268;39441;-73
2023/03/29 10:29:46;;;;;;;4.40;2.80;;;;;;;13.84;21.61;100925.17;103663;279;39811;-73
2023/03/29 10:32:26;;;;;;;5.50;3.00;;;;;;;13.55;22.31;100918.64;103640;279;38794;-73
2023/03/29 10:35:06;;;;;;;3.70;2.40;;;;;;;13.33;22.55;100924.11;103687;279;39420;-74
2023/03/29 10:37:43;;;;;;;4.10;2.20;;;;;;;13.22;23.12;100922.45;103659;279;39435;-74
2023/03/29 10:40:27;;;;;;;4.20;2.70;;;;;;;13.15;23.39;100923.07;103625;279;38987;-74
2023/03/29 10:43:14;;;;;;;4.60;2.80;;;;;;;12.98;23.57;100923.73;103683;279;38409;-76
2023/03/29 10:45:51;;;;;;;3.40;2.40;;;;;;;12.83;24.19;100918.55;103518;281;38246;-76
2023/03/29 10:48:30;;;;;;;3.00;2.00;;;;;;;12.60;23.99;100915.05;103650;279;38810;-73
2023/03/29 10:51:04;;;;;;;;;;;;;;;12.41;24.45;100916.98;103689;279;39702;-71
2023/03/29 10:53:39;;;;;;;3.60;1.80;;;;;;;12.24;24.08;100919.52;103659;279;39012;-75
2023/03/29 10:56:26;;;;;;;3.20;1.90;;;;;;;12.12;23.68;100915.95;103706;279;38518;-70
2023/03/29 10:59:23;;;;;;;2.80;1.80;;;;;;;11.90;23.35;100922.66;103508;281;38487;-73
2023/03/29 11:02:28;;;;;;;3.00;1.80;;;;;;;11.76;23.66;100919.61;103693;279;40233;-71
2023/03/29 11:05:16;;;;;;;3.40;2.10;;;;;;;11.58;24.00;100919.34;103474;279;38289;-73
2023/03/29 11:08:14;;;;;;;2.40;1.50;;;;;;;11.36;24.04;100913.77;103686;279;38269;-72
2023/03/29 11:10:55;;;;;;;4.40;2.70;;;;;;;11.24;24.22;100910.34;103698;279;38611;-72
2023/03/29 11:13:35;;;;;;;4.30;2.50;;;;;;;11.14;24.80;100905.23;103672;279;38235;-70
2023/03/29 11:16:17;;;;;;;3.80;2.40;;;;;;;10.98;25.09;100899.62;103637;279;39178;-75
2023/03/29 11:19:06;;;;;;;2.70;2.00;;;;;;;10.85;26.05;100896.70;103655;279;40305;-75
2023/03/29 11:21:45;;;;;;;3.30;2.40;;;;;;;10.79;26.08;100893.40;103656;279;38632;-73
2023/03/29 11:24:33;;;;;;;6.40;2.50;;;;;;;10.71;26.32;100891.73;103664;279;39467;-74
2023/03/29 11:27:21;;;;;;;3.80;2.20;;;;;;;10.70;26.07;100896.46;103700;279;39396;-71
2023/03/29 11:30:06;;;;;;;3.30;2.30;;;;;;;10.63;26.10;100892.49;103652;279;38281;-73
2023/03/29 11:32:48;;;;;;;3.80;2.40;;;;;;;10.49;25.77;100888.02;103704;279;38113;-73
2023/03/29 11:35:35;;;;;;;5.10;2.80;;;;;;;10.32;26.21;100885.35;103497;273;38481;-72
2023/03/29 11:38:16;;;;;;;4.00;3.00;;;;;;;10.25;26.41;100883.30;103687;279;38494;-71
2023/03/29 11:40:57;;;;;;;3.60;2.40;;;;;;;10.18;26.50;100882.95;103684;279;38255;-73
2023/03/29 11:43:35;;;;;;;4.20;2.50;;;;;;;10.15;26.20;100879.55;103698;279;38734;-71
2023/03/29 11:46:13;;;;;;;4.10;2.40;;;;;;;10.05;26.24;100875.48;103703;279;40366;-71
2023/03/29 11:48:52;;;;;;;5.50;2.90;;;;;;;10.00;26.62;100876.31;103659;279;38601;-73
2023/03/29 11:51:28;;;;;;;4.10;2.50;;;;;;;9.87;25.96;100876.83;103682;279;38527;-72
2023/03/29 11:54:05;;;;;;;4.30;2.40;;;;;;;9.68;26.23;100873.14;103653;279;40011;-72
2023/03/29 11:56:42;;;;;;;4.50;2.60;;;;;;;9.63;26.63;100869.81;103703;271;39463;-73
2023/03/29 11:59:19;;;;;;;4.70;2.90;;;;;;;9.55;26.78;100871.56;103668;279;39273;-72
2023/03/29 12:01:55;;;;;;;4.30;2.70;;;;;;;9.52;26.97;100874.10;103676;279;38530;-72
2023/03/29 12:04:32;;;;;;;4.20;2.80;;;;;;;9.49;27.18;100872.42;103508;279;38647;-72
2023/03/29 12:07:14;;;;;;;3.60;2.60;;;;;;;9.47;27.12;100866.55;103660;279;38820;-72
2023/03/29 12:09:50;;;;;;;4.00;2.30;;;;;;;9.42;27.03;100864.77;103661;279;38598;-72